createdAt,value
2018-11-27T00:02:46.223Z,41.33
2018-11-27T00:05:55.538Z,45.30
2018-11-27T00:09:06.617Z,45.43
2018-11-27T00:12:15.838Z,40.70
2018-11-27T00:15:24.937Z,45.67
2018-11-27T00:18:34.021Z,42.67
2018-11-27T00:21:43.340Z,41.67
2018-11-27T00:24:52.592Z,39.60
2018-11-27T00:28:01.665Z,39.27
2018-11-27T00:31:10.961Z,37.57
2018-11-27T00:34:20.025Z,40.20
2018-11-27T00:37:29.372Z,38.17
2018-11-27T00:40:38.681Z,44.07
2018-11-27T00:43:47.849Z,40.63
2018-11-27T00:46:56.967Z,40.70
2018-11-27T00:50:10.616Z,38.40
2018-11-27T00:53:19.754Z,39.33
2018-11-27T00:56:28.984Z,36.20
2018-11-27T00:59:38.261Z,40.97
2018-11-27T01:02:47.423Z,42.90
2018-11-27T01:05:56.622Z,41.57
2018-11-27T01:09:07.964Z,39.70
2018-11-27T01:12:17.234Z,38.93
2018-11-27T01:15:26.410Z,43.93
2018-11-27T01:18:35.706Z,41.40
2018-11-27T01:21:45.008Z,40.77
2018-11-27T01:24:54.108Z,39.60
2018-11-27T01:28:03.410Z,45.93
2018-11-27T01:31:12.454Z,43.27
2018-11-27T01:34:21.657Z,39.23
2018-11-27T01:37:30.871Z,41.13
2018-11-27T01:40:40.063Z,43.77
2018-11-27T01:43:49.429Z,43.83
2018-11-27T01:46:58.625Z,40.23
2018-11-27T01:50:10.445Z,42.40
2018-11-27T01:53:20.911Z,41.07
2018-11-27T01:56:30.909Z,41.57
2018-11-27T01:59:41.650Z,37.90
2018-11-27T02:02:52.197Z,40.97
2018-11-27T02:06:05.358Z,36.97
2018-11-27T02:09:31.256Z,38.63
2018-11-27T02:12:42.989Z,39.30
2018-11-27T02:15:52.226Z,41.00
2018-11-27T02:19:01.289Z,47.80
2018-11-27T02:22:10.376Z,41.10
2018-11-27T02:25:21.843Z,40.50
2018-11-27T02:28:31.828Z,41.20
2018-11-27T02:31:42.467Z,49.97
2018-11-27T02:34:53.128Z,46.57
2018-11-27T02:38:04.695Z,43.60
2018-11-27T02:41:13.875Z,42.87
2018-11-27T02:44:23.049Z,42.40
2018-11-27T02:47:32.389Z,43.07
2018-11-27T02:50:41.664Z,44.63
2018-11-27T02:53:50.768Z,43.50
2018-11-27T02:56:59.993Z,43.60
2018-11-27T03:00:13.720Z,47.07
2018-11-27T03:03:22.877Z,44.90
2018-11-27T03:06:32.092Z,43.53
2018-11-27T03:09:41.449Z,43.73
2018-11-27T03:12:50.528Z,41.97
2018-11-27T03:15:59.629Z,44.87
2018-11-27T03:19:08.950Z,43.40
2018-11-27T03:22:18.266Z,47.50
2018-11-27T03:25:27.550Z,43.10
2018-11-27T03:28:36.638Z,44.33
2018-11-27T03:31:45.881Z,44.30
2018-11-27T03:34:54.948Z,41.20
2018-11-27T03:38:04.121Z,47.80
2018-11-27T03:41:13.247Z,42.90
2018-11-27T03:44:25.312Z,42.57
2018-11-27T03:47:34.476Z,44.07
2018-11-27T03:50:43.967Z,39.90
2018-11-27T03:53:56.022Z,39.30
2018-11-27T03:57:05.846Z,41.03
2018-11-27T04:00:20.252Z,44.60
2018-11-27T04:03:29.333Z,42.73
2018-11-27T04:06:38.512Z,42.20
2018-11-27T04:09:47.686Z,41.67
2018-11-27T04:12:56.977Z,42.67
2018-11-27T04:16:06.074Z,39.83
2018-11-27T04:19:15.247Z,44.53
2018-11-27T04:22:24.573Z,41.70
2018-11-27T04:25:33.845Z,41.43
2018-11-27T04:28:43.071Z,41.33
2018-11-27T04:31:52.121Z,39.17
2018-11-27T04:35:01.523Z,38.00
2018-11-27T04:38:10.437Z,39.87
2018-11-27T04:41:19.732Z,41.10
2018-11-27T04:44:28.821Z,38.93
2018-11-27T04:47:37.927Z,42.07
2018-11-27T04:50:47.248Z,42.53
2018-11-27T04:53:56.449Z,40.90
2018-11-27T04:57:05.516Z,41.10
2018-11-27T05:00:21.842Z,37.40
2018-11-27T05:03:31.029Z,37.80
2018-11-27T05:06:40.288Z,37.03
2018-11-27T05:09:49.389Z,39.40
2018-11-27T05:12:58.530Z,37.77
2018-11-27T05:16:07.775Z,40.83
2018-11-27T05:19:17.046Z,40.17
2018-11-27T05:22:26.336Z,42.33
2018-11-27T05:25:35.664Z,41.03
2018-11-27T05:28:44.732Z,41.90
2018-11-27T05:31:53.839Z,37.67
2018-11-27T05:35:03.125Z,38.80
2018-11-27T05:38:12.438Z,38.63
2018-11-27T05:41:21.753Z,38.53
2018-11-27T05:44:30.957Z,38.73
2018-11-27T05:47:40.301Z,39.13
2018-11-27T05:50:49.543Z,41.10
2018-11-27T05:53:58.717Z,42.53
2018-11-27T05:57:07.789Z,38.17
2018-11-27T06:00:18.937Z,39.60
2018-11-27T06:03:28.177Z,37.17
2018-11-27T06:06:37.317Z,37.87
2018-11-27T06:09:46.400Z,41.17
2018-11-27T06:12:55.456Z,38.93
2018-11-27T06:16:04.748Z,43.37
2018-11-27T06:19:13.955Z,42.17
2018-11-27T06:22:23.256Z,41.17
2018-11-27T06:25:32.599Z,33.80
2018-11-27T06:28:41.797Z,35.93
2018-11-27T06:31:50.995Z,36.13
2018-11-27T06:35:00.323Z,38.30
2018-11-27T06:38:10.201Z,39.43
2018-11-27T06:41:19.446Z,42.37
2018-11-27T06:44:28.774Z,42.43
2018-11-27T06:47:38.056Z,31.70
2018-11-27T06:50:47.424Z,34.30
2018-11-27T06:53:56.608Z,36.40
2018-11-27T06:57:06.130Z,38.97
2018-11-27T07:00:17.936Z,35.63
2018-11-27T07:03:26.990Z,31.80
2018-11-27T07:06:36.319Z,31.57
2018-11-27T07:09:45.411Z,36.90
2018-11-27T07:13:25.944Z,34.43
2018-11-27T07:16:35.170Z,34.47
2018-11-27T07:19:44.407Z,31.67
2018-11-27T07:22:53.670Z,34.17
2018-11-27T07:26:02.926Z,36.07
2018-11-27T07:29:12.195Z,31.03
2018-11-27T07:32:21.417Z,32.43
2018-11-27T07:35:30.678Z,32.90
2018-11-27T07:38:40.025Z,32.67
2018-11-27T07:41:49.213Z,33.23
2018-11-27T07:44:58.417Z,33.77
2018-11-27T07:48:08.703Z,36.43
2018-11-27T07:51:17.912Z,34.90
2018-11-27T07:54:26.992Z,33.27
2018-11-27T07:57:36.324Z,35.17
2018-11-27T08:00:45.610Z,34.43
2018-11-27T08:03:54.930Z,35.27
2018-11-27T08:07:04.233Z,34.97
2018-11-27T08:10:15.617Z,31.87
2018-11-27T08:13:24.853Z,34.80
2018-11-27T08:16:34.025Z,32.43
2018-11-27T08:19:43.324Z,32.93
2018-11-27T08:22:52.522Z,32.63
2018-11-27T08:26:01.611Z,33.77
2018-11-27T08:29:10.780Z,32.67
2018-11-27T08:32:20.552Z,33.27
2018-11-27T08:35:30.296Z,33.47
2018-11-27T08:38:39.599Z,32.30
2018-11-27T08:41:48.941Z,38.57
2018-11-27T08:44:58.218Z,33.57
2018-11-27T08:48:07.428Z,31.80
2018-11-27T08:51:16.921Z,29.97
2018-11-27T08:54:26.141Z,30.13
2018-11-27T08:57:35.475Z,31.13
2018-11-27T09:00:44.821Z,34.70
2018-11-27T09:03:54.045Z,34.23
2018-11-27T09:07:03.280Z,36.27
2018-11-27T09:10:14.512Z,29.27
2018-11-27T09:13:23.736Z,32.53
2018-11-27T09:16:32.960Z,32.47
2018-11-27T09:19:42.089Z,32.27
2018-11-27T09:22:51.189Z,32.73
2018-11-27T09:26:00.488Z,36.73
2018-11-27T09:29:09.831Z,32.67
2018-11-27T09:32:19.039Z,27.67
2018-11-27T09:35:28.306Z,25.60
2018-11-27T09:38:37.683Z,28.93
2018-11-27T09:41:46.980Z,26.77
2018-11-27T09:44:56.277Z,26.30
2018-11-27T09:48:05.423Z,27.98
2018-11-27T09:51:14.601Z,27.23
2018-11-27T09:54:23.809Z,29.90
2018-11-27T09:57:33.090Z,28.73
2018-11-27T10:00:42.268Z,26.10
2018-11-27T10:03:51.482Z,32.17
2018-11-27T10:07:00.597Z,27.83
2018-11-27T10:10:12.557Z,33.23
2018-11-27T10:13:52.092Z,28.57
2018-11-27T10:17:01.165Z,30.87
2018-11-27T10:20:12.931Z,27.90
2018-11-27T10:23:23.650Z,31.27
2018-11-27T10:26:33.308Z,31.23
2018-11-27T10:29:48.807Z,36.63
2018-11-27T10:32:58.560Z,33.07
2018-11-27T10:36:08.137Z,31.60
2018-11-27T10:39:17.590Z,31.07
2018-11-27T10:42:30.073Z,33.63
2018-11-27T10:45:36.210Z,30.80
2018-11-27T10:48:45.331Z,24.17
2018-11-27T10:51:54.515Z,26.70
2018-11-27T10:55:04.410Z,28.83
2018-11-27T10:58:13.544Z,29.07
2018-11-27T11:01:28.075Z,28.27
2018-11-27T11:04:37.447Z,33.40
2018-11-27T11:07:46.620Z,25.67
2018-11-27T11:10:55.687Z,26.97
2018-11-27T11:14:04.986Z,26.83
2018-11-27T11:17:14.189Z,26.83
2018-11-27T11:20:23.701Z,26.37
2018-11-27T11:23:32.951Z,25.37
2018-11-27T11:29:46.254Z,24.82
2018-11-27T11:32:55.492Z,22.27
2018-11-27T11:36:04.701Z,20.87
2018-11-27T11:39:13.999Z,21.67
2018-11-27T11:42:23.156Z,25.53
2018-11-27T11:45:41.599Z,22.93
2018-11-27T11:48:50.733Z,23.50
2018-11-27T11:52:00.007Z,20.50
2018-11-27T11:55:12.215Z,22.63
2018-11-27T12:06:40.950Z,21.43
2018-11-27T12:17:22.229Z,26.50
2018-11-27T12:25:49.857Z,25.03
2018-11-27T12:43:27.327Z,28.57
2018-11-27T12:46:41.807Z,25.97
2018-11-27T12:49:52.477Z,30.53
2018-11-27T12:53:02.005Z,33.93
2018-11-27T12:59:25.374Z,35.33
2018-11-27T13:02:35.990Z,37.83
2018-11-27T13:15:52.075Z,30.33
2018-11-27T13:19:14.031Z,24.87
2018-11-27T13:25:57.396Z,33.57
2018-11-27T13:29:07.140Z,31.90
2018-11-27T13:41:31.385Z,19.53
2018-11-27T13:44:40.623Z,24.83
2018-11-27T13:47:49.845Z,23.33
2018-11-27T13:50:59.035Z,25.77
2018-11-27T13:54:08.441Z,26.00
2018-11-27T13:57:17.899Z,28.50
2018-11-27T14:00:27.096Z,25.63
2018-11-27T14:03:36.415Z,25.47
2018-11-27T14:06:45.757Z,24.77
2018-11-27T14:09:55.067Z,26.30
2018-11-27T14:13:04.604Z,22.07
2018-11-27T14:16:14.075Z,21.13
2018-11-27T14:19:23.366Z,25.90
2018-11-27T14:22:32.675Z,27.60
2018-11-27T14:25:41.825Z,23.50
2018-11-27T14:28:51.068Z,24.50
2018-11-27T14:32:00.221Z,27.60
2018-11-27T14:35:09.902Z,25.27
2018-11-27T14:38:19.425Z,27.87
2018-11-27T14:41:28.718Z,27.40
2018-11-27T14:44:37.958Z,27.67
2018-11-27T14:47:48.348Z,25.87
2018-11-27T14:50:57.504Z,23.97
2018-11-27T14:54:06.764Z,23.93
2018-11-27T14:57:16.067Z,25.97
2018-11-27T15:03:37.460Z,23.27
2018-11-27T15:06:46.728Z,27.00
2018-11-27T15:09:56.024Z,27.83
2018-11-27T15:13:05.806Z,23.53
2018-11-27T15:16:14.988Z,24.73
2018-11-27T15:19:24.125Z,30.80
2018-11-27T15:22:33.547Z,29.23
2018-11-27T15:25:42.878Z,26.53
2018-11-27T15:28:52.288Z,27.73
2018-11-27T15:32:01.477Z,25.80
2018-11-27T15:35:11.568Z,30.57
2018-11-27T15:38:20.788Z,35.03
2018-11-27T15:41:30.041Z,28.50
2018-11-27T15:44:39.277Z,30.37
2018-11-27T15:47:48.574Z,33.43
2018-11-27T15:50:57.741Z,25.47
2018-11-27T15:54:07.080Z,30.30
2018-11-27T15:57:16.312Z,23.53
2018-11-27T16:00:26.210Z,32.33
2018-11-27T16:03:35.433Z,28.43
2018-11-27T16:06:44.629Z,26.13
2018-11-27T16:09:54.029Z,29.27
2018-11-27T16:13:03.392Z,34.77
2018-11-27T16:16:12.746Z,31.10
2018-11-27T16:19:22.046Z,29.17
2018-11-27T16:22:31.224Z,38.20
2018-11-27T16:25:40.594Z,27.10
2018-11-27T16:28:49.853Z,39.07
2018-11-27T16:31:58.997Z,27.57
2018-11-27T16:35:15.270Z,32.53
2018-11-27T16:38:24.565Z,23.40
2018-11-27T16:41:33.709Z,26.13
2018-11-27T16:44:42.909Z,22.87
2018-11-27T16:47:52.271Z,25.10
2018-11-27T16:51:01.537Z,22.50
2018-11-27T16:54:10.955Z,27.23
2018-11-27T16:57:20.201Z,25.87
2018-11-27T17:00:31.483Z,27.20
2018-11-27T17:03:40.659Z,25.17
2018-11-27T17:06:50.042Z,23.27
2018-11-27T17:09:59.458Z,26.13
2018-11-27T17:13:09.597Z,26.40
2018-11-27T17:16:18.741Z,28.13
2018-11-27T17:19:28.045Z,26.67
2018-11-27T17:22:37.169Z,26.83
2018-11-27T17:25:46.513Z,29.70
2018-11-27T17:28:55.973Z,23.87
2018-11-27T17:32:05.694Z,31.57
2018-11-27T17:35:14.826Z,24.30
2018-11-27T17:38:24.214Z,26.20
2018-11-27T17:41:33.827Z,26.43
2018-11-27T17:44:43.026Z,31.33
2018-11-27T17:47:52.409Z,28.10
2018-11-27T17:51:01.683Z,28.13
2018-11-27T17:54:10.863Z,18.00
2018-11-27T17:57:19.996Z,25.50
2018-11-27T18:00:30.716Z,23.37
2018-11-27T18:03:39.925Z,25.07
2018-11-27T18:06:49.410Z,25.77
2018-11-27T18:09:58.672Z,25.80
2018-11-27T18:13:07.932Z,24.93
2018-11-27T18:16:17.074Z,24.20
2018-11-27T18:19:26.364Z,23.73
2018-11-27T18:22:35.575Z,22.97
2018-11-27T18:25:44.875Z,24.00
2018-11-27T18:28:54.047Z,21.43
2018-11-27T18:32:03.330Z,23.07
2018-11-27T18:35:15.817Z,25.13
2018-11-27T18:38:25.085Z,24.77
2018-11-27T18:41:34.421Z,28.87
2018-11-27T18:44:43.725Z,25.20
2018-11-27T18:47:53.016Z,23.33
2018-11-27T18:51:02.389Z,20.77
2018-11-27T18:54:11.576Z,19.77
2018-11-27T18:57:20.763Z,18.33
2018-11-27T19:00:31.321Z,20.67
2018-11-27T19:03:40.777Z,18.10
2018-11-27T19:06:50.009Z,15.47
2018-11-27T19:09:59.335Z,12.53
2018-11-27T19:13:08.681Z,14.37
2018-11-27T19:16:17.831Z,21.20
2018-11-27T19:19:27.041Z,19.20
2018-11-27T19:22:36.395Z,18.43
2018-11-27T19:25:45.814Z,18.37
2018-11-27T19:28:55.051Z,18.43
2018-11-27T19:32:04.596Z,16.60
2018-11-27T19:35:17.107Z,21.10
2018-11-27T19:38:26.310Z,17.60
2018-11-27T19:41:35.729Z,18.07
2018-11-27T19:44:45.088Z,20.67
2018-11-27T19:47:55.053Z,19.70
2018-11-27T19:51:04.361Z,21.13
2018-11-27T19:54:13.581Z,18.43
2018-11-27T19:57:22.957Z,19.97
2018-11-27T20:00:32.221Z,19.27
2018-11-27T20:03:41.592Z,18.47
2018-11-27T20:06:50.977Z,19.87
2018-11-27T20:10:00.122Z,19.33
2018-11-27T20:13:09.339Z,19.90
2018-11-27T20:16:18.697Z,18.80
2018-11-27T20:19:28.121Z,18.93
2018-11-27T20:22:37.432Z,18.23
2018-11-27T20:25:46.720Z,19.00
2018-11-27T20:28:56.411Z,20.97
2018-11-27T20:32:05.847Z,18.03
2018-11-27T20:35:15.165Z,17.90
2018-11-27T20:38:24.526Z,19.70
2018-11-27T20:41:33.649Z,15.90
2018-11-27T20:44:42.911Z,17.60
2018-11-27T20:51:15.222Z,18.47
2018-11-27T20:54:24.527Z,20.43
2018-11-27T20:57:34.064Z,18.03
2018-11-27T21:00:44.865Z,17.77
2018-11-27T21:03:54.155Z,15.63
2018-11-27T21:07:03.370Z,16.67
2018-11-27T21:10:13.485Z,17.93
2018-11-27T21:13:22.658Z,16.53
2018-11-27T21:16:31.977Z,23.07
2018-11-27T21:19:41.343Z,16.87
2018-11-27T21:22:50.783Z,21.53
2018-11-27T21:26:05.474Z,12.53
2018-11-27T21:29:14.678Z,18.87
2018-11-27T21:32:23.975Z,22.50
2018-11-27T21:35:33.148Z,19.37
2018-11-27T21:38:42.309Z,18.10
2018-11-27T21:41:51.690Z,24.50
2018-11-27T21:45:00.978Z,21.47
2018-11-27T21:48:10.925Z,22.40
2018-11-27T21:51:20.242Z,20.10
2018-11-27T21:54:29.380Z,22.17
2018-11-27T21:57:38.623Z,20.90
2018-11-27T22:00:48.046Z,16.80
2018-11-27T22:03:57.247Z,18.90
2018-11-27T22:07:06.670Z,22.17
2018-11-27T22:10:19.663Z,25.07
2018-11-27T22:13:28.817Z,20.27
2018-11-27T22:16:38.007Z,20.43
2018-11-27T22:19:47.409Z,22.20
2018-11-27T22:22:56.867Z,23.60
2018-11-27T22:26:06.256Z,22.73
2018-11-27T22:29:15.480Z,20.17
2018-11-27T22:32:24.868Z,23.03
2018-11-27T22:35:34.380Z,22.57
2018-11-27T22:38:43.664Z,21.13
2018-11-27T22:41:52.914Z,21.03
2018-11-27T22:45:02.356Z,21.37
2018-11-27T22:48:12.252Z,21.83
2018-11-27T22:51:21.222Z,20.90
2018-11-27T22:54:30.566Z,19.30
2018-11-27T22:57:39.811Z,20.23
2018-11-27T23:00:50.748Z,31.23
2018-11-27T23:03:59.903Z,20.50
2018-11-27T23:07:09.242Z,19.10
2018-11-27T23:10:18.448Z,16.07
2018-11-27T23:13:27.649Z,15.30
2018-11-27T23:16:36.862Z,18.40
2018-11-27T23:19:46.242Z,3.20
2018-11-27T23:22:55.366Z,15.90
2018-11-27T23:26:04.689Z,15.17
2018-11-27T23:29:13.973Z,16.33
2018-11-27T23:32:23.253Z,16.60
2018-11-27T23:35:32.548Z,17.97
2018-11-27T23:38:41.928Z,17.57
2018-11-27T23:41:51.230Z,13.33
2018-11-27T23:45:00.598Z,14.17
2018-11-27T23:48:09.905Z,14.63
2018-11-27T23:51:19.098Z,14.27
2018-11-27T23:54:28.222Z,16.43
2018-11-27T23:57:37.662Z,12.17
